sensor_id;sensor_type;location;lat;lon;timestamp;temperature;humidity
45491;DHT22;31237;45.586;13.782;2023-02-28T00:01:10;1.40;80.30
45491;DHT22;31237;45.586;13.782;2023-02-28T00:03:36;1.40;80.40
45491;DHT22;31237;45.586;13.782;2023-02-28T00:06:04;1.40;80.50
45491;DHT22;31237;45.586;13.782;2023-02-28T00:08:31;1.40;80.50
45491;DHT22;31237;45.586;13.782;2023-02-28T00:11:04;1.40;80.60
45491;DHT22;31237;45.586;13.782;2023-02-28T00:13:30;1.40;80.60
45491;DHT22;31237;45.586;13.782;2023-02-28T00:16:06;1.40;80.60
45491;DHT22;31237;45.586;13.782;2023-02-28T00:18:32;1.40;80.50
45491;DHT22;31237;45.586;13.782;2023-02-28T00:20:58;1.40;80.50
45491;DHT22;31237;45.586;13.782;2023-02-28T00:23:24;1.40;80.60
45491;DHT22;31237;45.586;13.782;2023-02-28T00:25:51;1.40;80.60
45491;DHT22;31237;45.586;13.782;2023-02-28T00:28:17;1.40;80.60
45491;DHT22;31237;45.586;13.782;2023-02-28T00:30:43;1.40;80.70
45491;DHT22;31237;45.586;13.782;2023-02-28T00:33:08;1.30;80.60
45491;DHT22;31237;45.586;13.782;2023-02-28T00:35:34;1.40;80.70
45491;DHT22;31237;45.586;13.782;2023-02-28T00:38:00;1.40;80.80
45491;DHT22;31237;45.586;13.782;2023-02-28T00:40:26;1.30;80.70
45491;DHT22;31237;45.586;13.782;2023-02-28T00:42:51;1.30;80.80
45491;DHT22;31237;45.586;13.782;2023-02-28T00:45:17;1.30;80.90
45491;DHT22;31237;45.586;13.782;2023-02-28T00:47:43;1.30;81.00
45491;DHT22;31237;45.586;13.782;2023-02-28T00:50:09;1.30;80.90
45491;DHT22;31237;45.586;13.782;2023-02-28T00:52:35;1.30;81.00
45491;DHT22;31237;45.586;13.782;2023-02-28T00:55:01;1.30;81.10
45491;DHT22;31237;45.586;13.782;2023-02-28T00:57:26;1.40;81.10
45491;DHT22;31237;45.586;13.782;2023-02-28T00:59:52;1.40;81.10
45491;DHT22;31237;45.586;13.782;2023-02-28T01:02:21;1.40;81.10
45491;DHT22;31237;45.586;13.782;2023-02-28T01:04:47;1.40;81.00
45491;DHT22;31237;45.586;13.782;2023-02-28T01:07:12;1.40;81.10
45491;DHT22;31237;45.586;13.782;2023-02-28T01:09:40;1.40;81.10
45491;DHT22;31237;45.586;13.782;2023-02-28T01:12:07;1.50;81.10
45491;DHT22;31237;45.586;13.782;2023-02-28T01:14:33;1.50;81.00
45491;DHT22;31237;45.586;13.782;2023-02-28T01:17:00;1.50;80.90
45491;DHT22;31237;45.586;13.782;2023-02-28T01:19:26;1.50;80.70
45491;DHT22;31237;45.586;13.782;2023-02-28T01:21:52;1.60;80.70
45491;DHT22;31237;45.586;13.782;2023-02-28T01:24:17;1.60;80.60
45491;DHT22;31237;45.586;13.782;2023-02-28T01:26:43;1.60;80.60
45491;DHT22;31237;45.586;13.782;2023-02-28T01:29:09;1.60;80.50
45491;DHT22;31237;45.586;13.782;2023-02-28T01:31:34;1.60;80.30
45491;DHT22;31237;45.586;13.782;2023-02-28T01:34:00;1.60;80.30
45491;DHT22;31237;45.586;13.782;2023-02-28T01:36:26;1.60;80.30
45491;DHT22;31237;45.586;13.782;2023-02-28T01:38:52;1.60;80.30
45491;DHT22;31237;45.586;13.782;2023-02-28T01:41:24;1.60;80.30
45491;DHT22;31237;45.586;13.782;2023-02-28T01:46:16;1.60;80.30
45491;DHT22;31237;45.586;13.782;2023-02-28T01:48:53;1.60;80.40
45491;DHT22;31237;45.586;13.782;2023-02-28T01:51:28;1.60;80.30
45491;DHT22;31237;45.586;13.782;2023-02-28T01:54:01;1.50;80.30
45491;DHT22;31237;45.586;13.782;2023-02-28T01:56:30;1.50;80.40
45491;DHT22;31237;45.586;13.782;2023-02-28T01:58:58;1.60;80.50
45491;DHT22;31237;45.586;13.782;2023-02-28T02:01:26;1.60;80.50
45491;DHT22;31237;45.586;13.782;2023-02-28T02:03:58;1.60;80.50
45491;DHT22;31237;45.586;13.782;2023-02-28T02:06:44;1.60;80.60
45491;DHT22;31237;45.586;13.782;2023-02-28T02:09:11;1.60;80.60
45491;DHT22;31237;45.586;13.782;2023-02-28T02:11:39;1.60;80.70
45491;DHT22;31237;45.586;13.782;2023-02-28T02:17:23;1.70;80.60
45491;DHT22;31237;45.586;13.782;2023-02-28T02:23:13;1.70;80.50
45491;DHT22;31237;45.586;13.782;2023-02-28T02:25:54;1.70;80.50
45491;DHT22;31237;45.586;13.782;2023-02-28T02:31:29;1.80;80.50
45491;DHT22;31237;45.586;13.782;2023-02-28T02:36:51;1.80;80.30
45491;DHT22;31237;45.586;13.782;2023-02-28T02:39:44;1.90;80.30
45491;DHT22;31237;45.586;13.782;2023-02-28T02:42:21;1.90;80.40
45491;DHT22;31237;45.586;13.782;2023-02-28T02:44:58;1.90;80.20
45491;DHT22;31237;45.586;13.782;2023-02-28T02:47:27;1.90;80.10
45491;DHT22;31237;45.586;13.782;2023-02-28T02:49:57;1.90;80.10
45491;DHT22;31237;45.586;13.782;2023-02-28T02:52:30;1.90;80.10
45491;DHT22;31237;45.586;13.782;2023-02-28T02:54:59;1.90;80.10
45491;DHT22;31237;45.586;13.782;2023-02-28T02:57:38;1.90;80.10
45491;DHT22;31237;45.586;13.782;2023-02-28T03:00:06;1.90;80.10
45491;DHT22;31237;45.586;13.782;2023-02-28T03:02:36;1.90;80.10
45491;DHT22;31237;45.586;13.782;2023-02-28T03:05:12;2.00;80.00
45491;DHT22;31237;45.586;13.782;2023-02-28T03:07:40;1.90;79.90
45491;DHT22;31237;45.586;13.782;2023-02-28T03:10:36;1.90;79.90
45491;DHT22;31237;45.586;13.782;2023-02-28T03:13:15;1.90;79.90
45491;DHT22;31237;45.586;13.782;2023-02-28T03:21:28;1.90;79.90
45491;DHT22;31237;45.586;13.782;2023-02-28T03:26:29;1.90;80.00
45491;DHT22;31237;45.586;13.782;2023-02-28T03:31:38;1.90;80.00
45491;DHT22;31237;45.586;13.782;2023-02-28T03:34:31;1.90;80.00
45491;DHT22;31237;45.586;13.782;2023-02-28T03:37:04;1.90;79.90
45491;DHT22;31237;45.586;13.782;2023-02-28T03:39:43;1.90;80.00
45491;DHT22;31237;45.586;13.782;2023-02-28T03:42:31;1.90;80.10
45491;DHT22;31237;45.586;13.782;2023-02-28T03:45:04;1.90;80.20
45491;DHT22;31237;45.586;13.782;2023-02-28T03:47:41;1.80;80.10
45491;DHT22;31237;45.586;13.782;2023-02-28T03:52:44;1.80;80.10
45491;DHT22;31237;45.586;13.782;2023-02-28T03:55:13;1.80;80.10
45491;DHT22;31237;45.586;13.782;2023-02-28T03:57:42;1.80;80.30
45491;DHT22;31237;45.586;13.782;2023-02-28T04:00:11;1.80;80.30
45491;DHT22;31237;45.586;13.782;2023-02-28T04:02:38;1.80;80.50
45491;DHT22;31237;45.586;13.782;2023-02-28T04:05:05;1.70;80.50
45491;DHT22;31237;45.586;13.782;2023-02-28T04:07:32;1.70;80.80
45491;DHT22;31237;45.586;13.782;2023-02-28T04:09:58;1.70;80.90
45491;DHT22;31237;45.586;13.782;2023-02-28T04:12:24;1.70;80.90
45491;DHT22;31237;45.586;13.782;2023-02-28T04:14:50;1.70;81.70
45491;DHT22;31237;45.586;13.782;2023-02-28T04:17:16;1.70;81.80
45491;DHT22;31237;45.586;13.782;2023-02-28T04:19:42;1.60;81.30
45491;DHT22;31237;45.586;13.782;2023-02-28T04:22:08;1.70;81.40
45491;DHT22;31237;45.586;13.782;2023-02-28T04:24:34;1.60;81.40
45491;DHT22;31237;45.586;13.782;2023-02-28T04:27:00;1.60;81.70
45491;DHT22;31237;45.586;13.782;2023-02-28T04:29:27;1.70;81.60
45491;DHT22;31237;45.586;13.782;2023-02-28T04:31:54;1.60;81.60
45491;DHT22;31237;45.586;13.782;2023-02-28T04:34:23;1.60;81.60
45491;DHT22;31237;45.586;13.782;2023-02-28T04:36:50;1.60;81.90
45491;DHT22;31237;45.586;13.782;2023-02-28T04:39:19;1.60;82.00
45491;DHT22;31237;45.586;13.782;2023-02-28T04:41:45;1.60;82.10
45491;DHT22;31237;45.586;13.782;2023-02-28T04:44:12;1.60;82.10
45491;DHT22;31237;45.586;13.782;2023-02-28T04:46:37;1.60;82.20
45491;DHT22;31237;45.586;13.782;2023-02-28T04:49:03;1.60;82.20
45491;DHT22;31237;45.586;13.782;2023-02-28T04:51:29;1.60;82.30
45491;DHT22;31237;45.586;13.782;2023-02-28T04:53:55;1.60;82.40
45491;DHT22;31237;45.586;13.782;2023-02-28T04:56:21;1.60;82.40
45491;DHT22;31237;45.586;13.782;2023-02-28T04:58:47;1.60;82.60
45491;DHT22;31237;45.586;13.782;2023-02-28T05:01:20;1.60;82.50
45491;DHT22;31237;45.586;13.782;2023-02-28T05:03:46;1.60;82.60
45491;DHT22;31237;45.586;13.782;2023-02-28T05:06:12;1.60;82.60
45491;DHT22;31237;45.586;13.782;2023-02-28T05:08:39;1.60;82.70
45491;DHT22;31237;45.586;13.782;2023-02-28T05:11:08;1.50;82.70
45491;DHT22;31237;45.586;13.782;2023-02-28T05:13:37;1.60;82.60
45491;DHT22;31237;45.586;13.782;2023-02-28T05:16:03;1.50;82.70
45491;DHT22;31237;45.586;13.782;2023-02-28T05:18:29;1.50;82.70
45491;DHT22;31237;45.586;13.782;2023-02-28T05:20:54;1.50;82.80
45491;DHT22;31237;45.586;13.782;2023-02-28T05:23:22;1.50;83.00
45491;DHT22;31237;45.586;13.782;2023-02-28T05:25:48;1.50;83.20
45491;DHT22;31237;45.586;13.782;2023-02-28T05:28:13;1.50;83.20
45491;DHT22;31237;45.586;13.782;2023-02-28T05:30:39;1.40;83.20
45491;DHT22;31237;45.586;13.782;2023-02-28T05:33:05;1.40;83.20
45491;DHT22;31237;45.586;13.782;2023-02-28T05:35:31;1.40;83.30
45491;DHT22;31237;45.586;13.782;2023-02-28T05:37:57;1.40;83.40
45491;DHT22;31237;45.586;13.782;2023-02-28T05:40:23;1.40;83.60
45491;DHT22;31237;45.586;13.782;2023-02-28T05:42:50;1.50;83.70
45491;DHT22;31237;45.586;13.782;2023-02-28T05:45:16;1.50;83.70
45491;DHT22;31237;45.586;13.782;2023-02-28T05:47:42;1.50;83.70
45491;DHT22;31237;45.586;13.782;2023-02-28T05:50:08;1.50;83.60
45491;DHT22;31237;45.586;13.782;2023-02-28T05:52:36;1.50;83.50
45491;DHT22;31237;45.586;13.782;2023-02-28T05:55:02;1.40;83.60
45491;DHT22;31237;45.586;13.782;2023-02-28T05:57:27;1.50;83.80
45491;DHT22;31237;45.586;13.782;2023-02-28T05:59:53;1.40;83.70
45491;DHT22;31237;45.586;13.782;2023-02-28T06:02:19;1.50;83.90
45491;DHT22;31237;45.586;13.782;2023-02-28T06:04:45;1.50;83.80
45491;DHT22;31237;45.586;13.782;2023-02-28T06:07:11;1.50;83.80
45491;DHT22;31237;45.586;13.782;2023-02-28T06:09:37;1.50;83.90
45491;DHT22;31237;45.586;13.782;2023-02-28T06:12:04;1.50;83.80
45491;DHT22;31237;45.586;13.782;2023-02-28T06:14:35;1.50;83.90
45491;DHT22;31237;45.586;13.782;2023-02-28T06:17:02;1.60;83.90
45491;DHT22;31237;45.586;13.782;2023-02-28T06:19:28;1.60;83.80
45491;DHT22;31237;45.586;13.782;2023-02-28T06:21:56;1.60;83.60
45491;DHT22;31237;45.586;13.782;2023-02-28T06:24:24;1.70;83.60
45491;DHT22;31237;45.586;13.782;2023-02-28T06:26:51;1.70;83.50
45491;DHT22;31237;45.586;13.782;2023-02-28T06:29:17;1.70;83.30
45491;DHT22;31237;45.586;13.782;2023-02-28T06:31:45;1.80;83.20
45491;DHT22;31237;45.586;13.782;2023-02-28T06:34:12;1.80;83.20
45491;DHT22;31237;45.586;13.782;2023-02-28T06:36:41;1.90;83.20
45491;DHT22;31237;45.586;13.782;2023-02-28T06:39:08;1.90;83.10
45491;DHT22;31237;45.586;13.782;2023-02-28T06:41:34;1.90;82.90
45491;DHT22;31237;45.586;13.782;2023-02-28T06:44:04;2.00;82.80
45491;DHT22;31237;45.586;13.782;2023-02-28T06:46:31;2.00;82.70
45491;DHT22;31237;45.586;13.782;2023-02-28T06:48:57;2.10;82.60
45491;DHT22;31237;45.586;13.782;2023-02-28T06:51:23;2.10;82.50
45491;DHT22;31237;45.586;13.782;2023-02-28T06:53:50;2.20;82.30
45491;DHT22;31237;45.586;13.782;2023-02-28T06:56:17;2.20;82.20
45491;DHT22;31237;45.586;13.782;2023-02-28T06:58:48;2.20;82.00
45491;DHT22;31237;45.586;13.782;2023-02-28T07:01:14;2.30;82.00
45491;DHT22;31237;45.586;13.782;2023-02-28T07:03:40;2.30;81.60
45491;DHT22;31237;45.586;13.782;2023-02-28T07:06:06;2.40;81.50
45491;DHT22;31237;45.586;13.782;2023-02-28T07:08:33;2.40;81.50
45491;DHT22;31237;45.586;13.782;2023-02-28T07:10:59;2.40;81.50
45491;DHT22;31237;45.586;13.782;2023-02-28T07:13:24;2.50;81.40
45491;DHT22;31237;45.586;13.782;2023-02-28T07:16:02;2.60;81.30
45491;DHT22;31237;45.586;13.782;2023-02-28T07:18:29;2.60;80.60
45491;DHT22;31237;45.586;13.782;2023-02-28T07:20:55;2.60;80.40
45491;DHT22;31237;45.586;13.782;2023-02-28T07:23:21;2.70;80.50
45491;DHT22;31237;45.586;13.782;2023-02-28T07:25:47;2.80;80.20
45491;DHT22;31237;45.586;13.782;2023-02-28T07:28:14;2.80;80.20
45491;DHT22;31237;45.586;13.782;2023-02-28T07:30:40;2.90;80.20
45491;DHT22;31237;45.586;13.782;2023-02-28T07:33:06;2.90;80.00
45491;DHT22;31237;45.586;13.782;2023-02-28T07:35:32;3.00;79.40
45491;DHT22;31237;45.586;13.782;2023-02-28T07:37:58;3.00;79.30
45491;DHT22;31237;45.586;13.782;2023-02-28T07:40:24;3.10;79.40
45491;DHT22;31237;45.586;13.782;2023-02-28T07:42:50;3.10;79.30
45491;DHT22;31237;45.586;13.782;2023-02-28T07:45:16;3.20;79.10
45491;DHT22;31237;45.586;13.782;2023-02-28T07:47:43;3.20;78.50
45491;DHT22;31237;45.586;13.782;2023-02-28T07:50:12;3.30;78.60
45491;DHT22;31237;45.586;13.782;2023-02-28T07:52:38;3.30;78.40
45491;DHT22;31237;45.586;13.782;2023-02-28T07:55:05;3.40;78.30
45491;DHT22;31237;45.586;13.782;2023-02-28T07:57:31;3.50;78.30
45491;DHT22;31237;45.586;13.782;2023-02-28T07:59:57;3.50;78.10
45491;DHT22;31237;45.586;13.782;2023-02-28T08:02:23;3.50;78.10
45491;DHT22;31237;45.586;13.782;2023-02-28T08:04:49;3.60;78.00
45491;DHT22;31237;45.586;13.782;2023-02-28T08:07:17;3.70;77.90
45491;DHT22;31237;45.586;13.782;2023-02-28T08:09:44;3.80;77.40
45491;DHT22;31237;45.586;13.782;2023-02-28T08:12:10;3.80;77.30
45491;DHT22;31237;45.586;13.782;2023-02-28T08:14:37;3.90;77.30
45491;DHT22;31237;45.586;13.782;2023-02-28T08:17:03;4.00;76.20
45491;DHT22;31237;45.586;13.782;2023-02-28T08:19:29;3.90;75.90
45491;DHT22;31237;45.586;13.782;2023-02-28T08:21:55;3.90;75.70
45491;DHT22;31237;45.586;13.782;2023-02-28T08:24:21;3.80;75.70
45491;DHT22;31237;45.586;13.782;2023-02-28T08:26:47;3.80;75.70
45491;DHT22;31237;45.586;13.782;2023-02-28T08:29:12;3.80;75.80
45491;DHT22;31237;45.586;13.782;2023-02-28T08:31:38;3.90;76.10
45491;DHT22;31237;45.586;13.782;2023-02-28T08:34:12;4.00;76.20
45491;DHT22;31237;45.586;13.782;2023-02-28T08:36:38;4.00;75.90
45491;DHT22;31237;45.586;13.782;2023-02-28T08:39:04;4.10;75.60
45491;DHT22;31237;45.586;13.782;2023-02-28T08:41:30;4.10;75.30
45491;DHT22;31237;45.586;13.782;2023-02-28T08:43:56;4.20;75.20
45491;DHT22;31237;45.586;13.782;2023-02-28T08:46:22;4.30;74.80
45491;DHT22;31237;45.586;13.782;2023-02-28T08:48:52;4.40;75.00
45491;DHT22;31237;45.586;13.782;2023-02-28T08:51:19;4.60;75.20
45491;DHT22;31237;45.586;13.782;2023-02-28T08:53:52;4.70;75.30
45491;DHT22;31237;45.586;13.782;2023-02-28T08:56:18;4.90;74.80
45491;DHT22;31237;45.586;13.782;2023-02-28T08:58:46;5.10;74.50
45491;DHT22;31237;45.586;13.782;2023-02-28T09:01:14;5.30;72.80
45491;DHT22;31237;45.586;13.782;2023-02-28T09:03:40;5.40;71.80
45491;DHT22;31237;45.586;13.782;2023-02-28T09:06:12;5.50;72.20
45491;DHT22;31237;45.586;13.782;2023-02-28T09:08:38;5.70;72.20
45491;DHT22;31237;45.586;13.782;2023-02-28T09:11:03;5.80;70.10
45491;DHT22;31237;45.586;13.782;2023-02-28T09:13:29;5.80;69.80
45491;DHT22;31237;45.586;13.782;2023-02-28T09:15:58;5.90;70.10
45491;DHT22;31237;45.586;13.782;2023-02-28T09:18:24;5.90;69.60
45491;DHT22;31237;45.586;13.782;2023-02-28T09:20:50;5.90;69.80
45491;DHT22;31237;45.586;13.782;2023-02-28T09:23:16;5.90;69.80
45491;DHT22;31237;45.586;13.782;2023-02-28T09:25:46;6.00;68.80
45491;DHT22;31237;45.586;13.782;2023-02-28T09:28:13;6.00;68.90
45491;DHT22;31237;45.586;13.782;2023-02-28T09:30:41;6.00;68.90
45491;DHT22;31237;45.586;13.782;2023-02-28T09:33:07;6.00;68.80
45491;DHT22;31237;45.586;13.782;2023-02-28T09:35:33;6.00;67.60
45491;DHT22;31237;45.586;13.782;2023-02-28T09:37:59;6.00;68.20
45491;DHT22;31237;45.586;13.782;2023-02-28T09:40:25;6.00;68.70
45491;DHT22;31237;45.586;13.782;2023-02-28T09:42:53;6.00;68.80
45491;DHT22;31237;45.586;13.782;2023-02-28T09:45:40;6.00;68.50
45491;DHT22;31237;45.586;13.782;2023-02-28T09:48:12;6.10;68.00
45491;DHT22;31237;45.586;13.782;2023-02-28T09:50:55;6.00;68.10
45491;DHT22;31237;45.586;13.782;2023-02-28T09:53:33;6.10;68.50
45491;DHT22;31237;45.586;13.782;2023-02-28T09:56:21;6.10;68.70
45491;DHT22;31237;45.586;13.782;2023-02-28T09:59:04;6.20;68.20
45491;DHT22;31237;45.586;13.782;2023-02-28T10:01:34;6.30;68.40
45491;DHT22;31237;45.586;13.782;2023-02-28T10:06:49;6.40;67.90
45491;DHT22;31237;45.586;13.782;2023-02-28T10:09:22;6.40;67.40
45491;DHT22;31237;45.586;13.782;2023-02-28T10:12:02;6.40;67.60
45491;DHT22;31237;45.586;13.782;2023-02-28T10:14:31;6.40;67.10
45491;DHT22;31237;45.586;13.782;2023-02-28T10:17:08;6.40;67.00
45491;DHT22;31237;45.586;13.782;2023-02-28T10:20:02;6.40;67.10
45491;DHT22;31237;45.586;13.782;2023-02-28T10:22:52;6.50;67.20
45491;DHT22;31237;45.586;13.782;2023-02-28T10:25:25;6.40;66.80
45491;DHT22;31237;45.586;13.782;2023-02-28T10:28:00;6.50;66.70
45491;DHT22;31237;45.586;13.782;2023-02-28T10:30:27;6.50;67.00
45491;DHT22;31237;45.586;13.782;2023-02-28T10:32:53;6.50;66.80
45491;DHT22;31237;45.586;13.782;2023-02-28T10:35:25;6.50;66.60
45491;DHT22;31237;45.586;13.782;2023-02-28T10:37:57;6.50;67.00
45491;DHT22;31237;45.586;13.782;2023-02-28T10:46:09;6.50;66.30
45491;DHT22;31237;45.586;13.782;2023-02-28T10:48:50;6.50;67.00
45491;DHT22;31237;45.586;13.782;2023-02-28T10:51:23;6.50;67.10
45491;DHT22;31237;45.586;13.782;2023-02-28T10:53:49;6.50;67.40
45491;DHT22;31237;45.586;13.782;2023-02-28T10:56:18;6.60;67.20
45491;DHT22;31237;45.586;13.782;2023-02-28T10:59:35;6.70;67.20
45491;DHT22;31237;45.586;13.782;2023-02-28T11:01:45;6.70;67.10
45491;DHT22;31237;45.586;13.782;2023-02-28T11:06:59;6.80;67.40
45491;DHT22;31237;45.586;13.782;2023-02-28T11:09:32;6.80;66.80
45491;DHT22;31237;45.586;13.782;2023-02-28T11:12:02;6.90;66.70
45491;DHT22;31237;45.586;13.782;2023-02-28T11:14:35;6.90;66.40
45491;DHT22;31237;45.586;13.782;2023-02-28T11:17:14;6.90;66.00
45491;DHT22;31237;45.586;13.782;2023-02-28T11:19:47;6.80;66.80
45491;DHT22;31237;45.586;13.782;2023-02-28T11:22:24;6.90;66.70
45491;DHT22;31237;45.586;13.782;2023-02-28T11:24:56;6.90;66.20
45491;DHT22;31237;45.586;13.782;2023-02-28T11:30:00;6.80;65.90
45491;DHT22;31237;45.586;13.782;2023-02-28T11:32:29;6.80;66.40
45491;DHT22;31237;45.586;13.782;2023-02-28T11:37:38;6.70;66.90
45491;DHT22;31237;45.586;13.782;2023-02-28T11:40:15;6.80;67.10
45491;DHT22;31237;45.586;13.782;2023-02-28T12:04:51;6.90;66.90
45491;DHT22;31237;45.586;13.782;2023-02-28T12:10:29;6.90;66.60
45491;DHT22;31237;45.586;13.782;2023-02-28T12:26:44;6.60;67.10
45491;DHT22;31237;45.586;13.782;2023-02-28T12:29:29;6.60;66.90
45491;DHT22;31237;45.586;13.782;2023-02-28T12:32:06;6.60;67.30
45491;DHT22;31237;45.586;13.782;2023-02-28T12:34:38;6.50;67.40
45491;DHT22;31237;45.586;13.782;2023-02-28T12:37:10;6.50;67.80
45491;DHT22;31237;45.586;13.782;2023-02-28T12:39:44;6.50;67.70
45491;DHT22;31237;45.586;13.782;2023-02-28T12:42:33;6.50;67.80
45491;DHT22;31237;45.586;13.782;2023-02-28T12:45:10;6.50;67.20
45491;DHT22;31237;45.586;13.782;2023-02-28T12:47:38;6.40;67.30
45491;DHT22;31237;45.586;13.782;2023-02-28T12:50:08;6.40;67.40
45491;DHT22;31237;45.586;13.782;2023-02-28T12:55:35;6.30;67.60
45491;DHT22;31237;45.586;13.782;2023-02-28T13:06:34;6.10;68.70
45491;DHT22;31237;45.586;13.782;2023-02-28T13:09:11;6.10;68.60
45491;DHT22;31237;45.586;13.782;2023-02-28T13:11:50;6.00;68.60
45491;DHT22;31237;45.586;13.782;2023-02-28T13:19:35;5.90;69.10
45491;DHT22;31237;45.586;13.782;2023-02-28T13:22:02;5.80;69.40
45491;DHT22;31237;45.586;13.782;2023-02-28T13:29:41;5.80;69.60
45491;DHT22;31237;45.586;13.782;2023-02-28T13:47:30;5.60;70.30
45491;DHT22;31237;45.586;13.782;2023-02-28T14:09:00;5.70;69.70
45491;DHT22;31237;45.586;13.782;2023-02-28T14:11:34;5.60;69.60
45491;DHT22;31237;45.586;13.782;2023-02-28T14:14:04;5.60;69.70
45491;DHT22;31237;45.586;13.782;2023-02-28T14:16:47;5.50;69.90
45491;DHT22;31237;45.586;13.782;2023-02-28T14:19:34;5.50;69.80
45491;DHT22;31237;45.586;13.782;2023-02-28T14:22:13;5.50;70.00
45491;DHT22;31237;45.586;13.782;2023-02-28T14:25:05;5.40;70.20
45491;DHT22;31237;45.586;13.782;2023-02-28T14:30:50;5.40;70.30
45491;DHT22;31237;45.586;13.782;2023-02-28T14:36:06;5.50;70.40
45491;DHT22;31237;45.586;13.782;2023-02-28T14:38:51;5.40;70.30
45491;DHT22;31237;45.586;13.782;2023-02-28T14:41:33;5.50;69.80
45491;DHT22;31237;45.586;13.782;2023-02-28T14:44:13;5.40;69.80
45491;DHT22;31237;45.586;13.782;2023-02-28T14:46:41;5.30;70.00
45491;DHT22;31237;45.586;13.782;2023-02-28T14:49:15;5.20;70.30
45491;DHT22;31237;45.586;13.782;2023-02-28T14:51:42;5.20;70.40
45491;DHT22;31237;45.586;13.782;2023-02-28T14:54:14;5.20;70.50
45491;DHT22;31237;45.586;13.782;2023-02-28T14:56:41;5.20;70.50
45491;DHT22;31237;45.586;13.782;2023-02-28T14:59:30;5.10;70.50
45491;DHT22;31237;45.586;13.782;2023-02-28T15:02:16;5.20;70.70
45491;DHT22;31237;45.586;13.782;2023-02-28T15:04:41;5.20;70.80
45491;DHT22;31237;45.586;13.782;2023-02-28T15:07:14;5.10;70.80
45491;DHT22;31237;45.586;13.782;2023-02-28T15:09:40;5.20;70.80
45491;DHT22;31237;45.586;13.782;2023-02-28T15:12:07;5.10;70.60
45491;DHT22;31237;45.586;13.782;2023-02-28T15:14:35;5.10;70.80
45491;DHT22;31237;45.586;13.782;2023-02-28T15:17:08;5.10;70.60
45491;DHT22;31237;45.586;13.782;2023-02-28T15:19:39;5.10;70.70
45491;DHT22;31237;45.586;13.782;2023-02-28T15:22:15;5.10;70.80
45491;DHT22;31237;45.586;13.782;2023-02-28T15:25:02;5.10;70.60
45491;DHT22;31237;45.586;13.782;2023-02-28T15:27:32;5.10;70.70
45491;DHT22;31237;45.586;13.782;2023-02-28T15:30:04;5.00;70.60
45491;DHT22;31237;45.586;13.782;2023-02-28T15:32:38;5.00;70.60
45491;DHT22;31237;45.586;13.782;2023-02-28T15:35:27;5.00;70.60
45491;DHT22;31237;45.586;13.782;2023-02-28T15:37:55;4.90;70.80
45491;DHT22;31237;45.586;13.782;2023-02-28T15:40:40;4.90;70.90
45491;DHT22;31237;45.586;13.782;2023-02-28T15:48:53;4.80;70.90
45491;DHT22;31237;45.586;13.782;2023-02-28T15:51:21;4.70;70.70
45491;DHT22;31237;45.586;13.782;2023-02-28T15:56:33;4.60;71.00
45491;DHT22;31237;45.586;13.782;2023-02-28T15:59:02;4.50;71.20
45491;DHT22;31237;45.586;13.782;2023-02-28T16:01:38;4.50;71.40
45491;DHT22;31237;45.586;13.782;2023-02-28T16:04:24;4.40;71.50
45491;DHT22;31237;45.586;13.782;2023-02-28T16:07:00;4.40;71.70
45491;DHT22;31237;45.586;13.782;2023-02-28T16:09:29;4.30;71.90
45491;DHT22;31237;45.586;13.782;2023-02-28T16:11:59;4.30;72.20
45491;DHT22;31237;45.586;13.782;2023-02-28T16:14:28;4.30;72.40
45491;DHT22;31237;45.586;13.782;2023-02-28T16:16:57;4.20;72.50
45491;DHT22;31237;45.586;13.782;2023-02-28T16:19:27;4.10;72.80
45491;DHT22;31237;45.586;13.782;2023-02-28T16:21:53;4.00;73.10
45491;DHT22;31237;45.586;13.782;2023-02-28T16:24:18;4.00;73.40
45491;DHT22;31237;45.586;13.782;2023-02-28T16:26:47;3.90;73.50
45491;DHT22;31237;45.586;13.782;2023-02-28T16:29:41;3.80;73.70
45491;DHT22;31237;45.586;13.782;2023-02-28T16:32:10;3.80;73.90
45491;DHT22;31237;45.586;13.782;2023-02-28T16:34:37;3.70;74.10
45491;DHT22;31237;45.586;13.782;2023-02-28T16:37:04;3.70;74.20
45491;DHT22;31237;45.586;13.782;2023-02-28T16:39:30;3.60;74.30
45491;DHT22;31237;45.586;13.782;2023-02-28T16:41:56;3.60;74.40
45491;DHT22;31237;45.586;13.782;2023-02-28T16:44:30;3.60;74.40
45491;DHT22;31237;45.586;13.782;2023-02-28T16:46:57;3.50;74.60
45491;DHT22;31237;45.586;13.782;2023-02-28T16:49:25;3.50;74.70
45491;DHT22;31237;45.586;13.782;2023-02-28T16:51:50;3.40;74.80
45491;DHT22;31237;45.586;13.782;2023-02-28T16:54:16;3.40;75.00
45491;DHT22;31237;45.586;13.782;2023-02-28T16:56:44;3.40;75.20
45491;DHT22;31237;45.586;13.782;2023-02-28T16:59:11;3.40;75.10
45491;DHT22;31237;45.586;13.782;2023-02-28T17:01:37;3.30;75.10
45491;DHT22;31237;45.586;13.782;2023-02-28T17:04:10;3.30;75.30
45491;DHT22;31237;45.586;13.782;2023-02-28T17:06:39;3.30;75.30
45491;DHT22;31237;45.586;13.782;2023-02-28T17:09:05;3.20;75.50
45491;DHT22;31237;45.586;13.782;2023-02-28T17:11:34;3.20;75.50
45491;DHT22;31237;45.586;13.782;2023-02-28T17:14:00;3.10;75.50
45491;DHT22;31237;45.586;13.782;2023-02-28T17:16:29;3.10;75.90
45491;DHT22;31237;45.586;13.782;2023-02-28T17:18:59;3.10;76.00
45491;DHT22;31237;45.586;13.782;2023-02-28T17:21:25;3.10;76.10
45491;DHT22;31237;45.586;13.782;2023-02-28T17:23:51;3.10;76.20
45491;DHT22;31237;45.586;13.782;2023-02-28T17:26:18;3.00;76.20
45491;DHT22;31237;45.586;13.782;2023-02-28T17:28:50;3.00;76.20
45491;DHT22;31237;45.586;13.782;2023-02-28T17:31:16;3.00;76.30
45491;DHT22;31237;45.586;13.782;2023-02-28T17:33:48;2.90;76.30
45491;DHT22;31237;45.586;13.782;2023-02-28T17:36:20;2.90;76.50
45491;DHT22;31237;45.586;13.782;2023-02-28T17:38:51;2.90;76.70
45491;DHT22;31237;45.586;13.782;2023-02-28T17:41:16;2.80;76.90
45491;DHT22;31237;45.586;13.782;2023-02-28T17:43:46;2.80;77.10
45491;DHT22;31237;45.586;13.782;2023-02-28T17:46:30;2.80;77.20
45491;DHT22;31237;45.586;13.782;2023-02-28T17:48:57;2.80;77.20
45491;DHT22;31237;45.586;13.782;2023-02-28T17:51:26;2.80;77.20
45491;DHT22;31237;45.586;13.782;2023-02-28T17:53:56;2.80;77.20
45491;DHT22;31237;45.586;13.782;2023-02-28T17:56:30;2.80;77.20
45491;DHT22;31237;45.586;13.782;2023-02-28T17:58:56;2.80;77.30
45491;DHT22;31237;45.586;13.782;2023-02-28T18:01:23;2.80;77.40
45491;DHT22;31237;45.586;13.782;2023-02-28T18:04:02;2.80;77.40
45491;DHT22;31237;45.586;13.782;2023-02-28T18:06:34;2.80;77.30
45491;DHT22;31237;45.586;13.782;2023-02-28T18:09:00;2.80;77.30
45491;DHT22;31237;45.586;13.782;2023-02-28T18:11:26;2.80;77.40
45491;DHT22;31237;45.586;13.782;2023-02-28T18:14:07;2.80;77.30
45491;DHT22;31237;45.586;13.782;2023-02-28T18:16:33;2.80;77.00
45491;DHT22;31237;45.586;13.782;2023-02-28T18:18:59;2.90;77.00
45491;DHT22;31237;45.586;13.782;2023-02-28T18:21:27;2.80;76.80